Time;durP1;ratioP1;P1;durP2;ratioP2;P2;SDS_P1;SDS_P2;PMS_P1;PMS_P2;Temp;Humidity;BMP_temperature;BMP_pressure;BME280_temperature;BME280_humidity;BME280_pressure;Samples;Min_cycle;Max_cycle;Signal;HPM_P1;HPM_P2
2023/05/18 00:01:04;;;;;;;;;;;;;;;8.88;100.00;-18267.19;5032264;28;20431;-76
2023/05/18 00:03:32;;;;;;;;;;;;;;;8.79;100.00;-18264.72;5029742;28;19920;-77
2023/05/18 00:06:03;;;;;;;;;;;;;;;8.73;100.00;-18263.19;5030760;28;19928;-76
2023/05/18 00:08:28;;;;;;;;;;;;;;;8.79;100.00;-18264.84;5029826;28;20344;-77
2023/05/18 00:10:53;;;;;;;;;;;;;;;8.79;100.00;-18264.84;5041593;28;19997;-77
2023/05/18 00:13:18;;;;;;;;;;;;;;;8.86;100.00;-18266.50;5037414;28;19920;-78
2023/05/18 00:15:44;;;;;;;;;;;;;;;8.81;100.00;-18265.41;5034458;28;19939;-79
2023/05/18 00:18:09;;;;;;;;;;;;;;;8.66;100.00;-18261.28;5030871;28;20295;-76
2023/05/18 00:20:35;;;;;;;;;;;;;;;8.74;100.00;-18263.31;5033166;28;19924;-79
2023/05/18 00:23:01;;;;;;;;;;;;;;;8.84;100.00;-18265.94;5031335;28;19913;-76
2023/05/18 00:25:26;;;;;;;;;;;;;;;8.76;100.00;-18264.00;5029702;28;20486;-77
2023/05/18 00:27:51;;;;;;;;;;;;;;;8.79;100.00;-18264.84;5027340;28;19953;-76
2023/05/18 00:30:17;;;;;;;;;;;;;;;8.77;100.00;-18264.16;5030808;28;20376;-76
2023/05/18 00:32:42;;;;;;;;;;;;;;;8.66;100.00;-18261.28;5013082;28;20336;-77
2023/05/18 00:35:07;;;;;;;;;;;;;;;8.69;100.00;-18261.94;5012362;28;19917;-77
2023/05/18 00:37:32;;;;;;;;;;;;;;;8.69;100.00;-18261.94;5029800;28;19917;-77
2023/05/18 00:39:58;;;;;;;;;;;;;;;8.50;100.00;-18257.00;5030983;28;20443;-77
2023/05/18 00:42:23;;;;;;;;;;;;;;;8.50;100.00;-18257.00;5030318;28;19955;-77
2023/05/18 00:44:48;;;;;;;;;;;;;;;8.30;100.00;-18251.63;5030598;28;19969;-77
2023/05/18 00:47:14;;;;;;;;;;;;;;;8.13;100.00;-18246.94;5030081;28;20184;-76
2023/05/18 00:49:40;;;;;;;;;;;;;;;8.12;100.00;-18246.81;5029971;28;19913;-77
2023/05/18 00:52:05;;;;;;;;;;;;;;;8.05;100.00;-18244.88;5034757;28;20265;-78
2023/05/18 00:54:32;;;;;;;;;;;;;;;7.95;100.00;-18242.00;5033692;28;19927;-79
2023/05/18 00:57:00;;;;;;;;;;;;;;;7.73;100.00;-18236.06;5029261;28;20419;-76
2023/05/18 00:59:26;;;;;;;;;;;;;;;7.74;100.00;-18236.47;5032780;28;19913;-79
2023/05/18 01:01:52;;;;;;;;;;;;;;;7.83;100.00;-18238.97;5024916;28;19975;-77
2023/05/18 01:04:20;;;;;;;;;;;;;;;7.74;100.00;-18236.34;5032401;28;19978;-78
2023/05/18 01:06:46;;;;;;;;;;;;;;;7.64;100.00;-18233.84;5029912;28;19928;-78
2023/05/18 01:09:12;;;;;;;;;;;;;;;7.66;100.00;-18234.41;5011752;28;19913;-78
2023/05/18 01:11:38;;;;;;;;;;;;;;;7.56;100.00;-18231.53;5023206;28;19912;-79
2023/05/18 01:14:14;;;;;;;;;;;;;;;7.56;100.00;-18231.66;5042086;28;19921;-80
2023/05/18 01:16:42;;;;;;;;;;;;;;;7.53;100.00;-18230.69;5039661;28;19921;-79
2023/05/18 01:19:30;;;;;;;;;;;;;;;7.62;100.00;-18233.16;5044486;28;19913;-79
2023/05/18 01:22:02;;;;;;;;;;;;;;;7.68;100.00;-18234.81;5001353;28;19917;-79
2023/05/18 01:24:37;;;;;;;;;;;;;;;7.75;100.00;-18236.75;5018920;28;19944;-77
2023/05/18 01:27:04;;;;;;;;;;;;;;;7.58;100.00;-18232.22;5029192;28;19925;-79
2023/05/18 01:29:29;;;;;;;;;;;;;;;7.56;100.00;-18231.53;5024511;28;19917;-79
2023/05/18 01:31:55;;;;;;;;;;;;;;;7.69;100.00;-18235.09;5027864;28;19917;-79
2023/05/18 01:34:21;;;;;;;;;;;;;;;7.69;100.00;-18235.25;5003755;28;19941;-79
2023/05/18 01:36:46;;;;;;;;;;;;;;;7.57;100.00;-18231.94;5027247;28;22900;-79
2023/05/18 01:39:11;;;;;;;;;;;;;;;7.51;100.00;-18230.13;5026859;28;19966;-79
2023/05/18 01:41:40;;;;;;;;;;;;;;;7.55;100.00;-18231.25;5032438;28;19921;-79
2023/05/18 01:44:06;;;;;;;;;;;;;;;7.56;100.00;-18231.53;5024640;28;19944;-77
2023/05/18 01:47:06;;;;;;;;;;;;;;;7.59;100.00;-18232.34;5021163;28;20300;-79
2023/05/18 01:49:36;;;;;;;;;;;;;;;7.37;100.00;-18226.44;4952436;28;19985;-77
2023/05/18 01:52:12;;;;;;;;;;;;;;;7.39;100.00;-18226.97;5017886;28;20413;-78
2023/05/18 01:54:44;;;;;;;;;;;;;;;7.35;100.00;-18226.00;5027866;28;19941;-79
2023/05/18 01:57:10;;;;;;;;;;;;;;;7.41;100.00;-18227.53;5025095;28;19921;-79
2023/05/18 01:59:36;;;;;;;;;;;;;;;7.29;100.00;-18224.34;5017293;28;20446;-78
2023/05/18 02:02:02;;;;;;;;;;;;;;;7.16;100.00;-18220.91;5024074;28;19956;-79
2023/05/18 02:04:27;;;;;;;;;;;;;;;7.09;100.00;-18218.84;5026833;28;19933;-79
2023/05/18 02:06:53;;;;;;;;;;;;;;;6.92;100.00;-18214.44;5025402;28;19921;-79
2023/05/18 02:09:19;;;;;;;;;;;;;;;7.03;100.00;-18217.19;5027160;28;19918;-79
2023/05/18 02:11:45;;;;;;;;;;;;;;;7.10;100.00;-18219.25;5030248;28;19925;-79
2023/05/18 02:14:10;;;;;;;;;;;;;;;7.05;100.00;-18217.75;5029964;28;19985;-78
2023/05/18 02:16:36;;;;;;;;;;;;;;;6.97;100.00;-18215.81;5028306;28;20363;-79
2023/05/18 02:19:02;;;;;;;;;;;;;;;7.03;100.00;-18217.19;5015428;28;20024;-79
2023/05/18 02:21:27;;;;;;;;;;;;;;;7.06;100.00;-18218.03;5031762;28;20115;-79
2023/05/18 02:23:52;;;;;;;;;;;;;;;7.04;100.00;-18217.47;5019842;28;19952;-79
2023/05/18 02:26:18;;;;;;;;;;;;;;;7.01;100.00;-18216.91;5032226;28;19976;-79
2023/05/18 02:28:43;;;;;;;;;;;;;;;7.00;100.00;-18216.63;5033349;28;20011;-79
2023/05/18 02:31:10;;;;;;;;;;;;;;;6.87;100.00;-18213.06;5026653;28;19940;-78
2023/05/18 02:33:38;;;;;;;;;;;;;;;6.92;100.00;-18214.28;5020159;28;19917;-79
2023/05/18 02:36:05;;;;;;;;;;;;;;;6.96;100.00;-18215.53;5041355;28;19917;-79
2023/05/18 02:38:30;;;;;;;;;;;;;;;7.00;100.00;-18216.50;5043199;28;19932;-79
2023/05/18 02:40:55;;;;;;;;;;;;;;;7.03;100.00;-18217.31;5043055;28;20535;-79
2023/05/18 02:43:20;;;;;;;;;;;;;;;6.94;100.00;-18215.00;5039528;28;19917;-79
2023/05/18 02:45:46;;;;;;;;;;;;;;;6.99;100.00;-18216.38;5033188;28;19988;-79
2023/05/18 02:48:11;;;;;;;;;;;;;;;7.10;100.00;-18219.13;5028530;28;19932;-79
2023/05/18 02:50:36;;;;;;;;;;;;;;;6.95;100.00;-18215.25;5028622;28;19925;-80
2023/05/18 02:53:01;;;;;;;;;;;;;;;6.85;100.00;-18212.50;5032350;28;19918;-80
2023/05/18 02:55:27;;;;;;;;;;;;;;;6.75;100.00;-18209.75;5032418;28;19918;-80
2023/05/18 02:57:55;;;;;;;;;;;;;;;6.64;100.00;-18206.84;5031846;28;20534;-80
2023/05/18 03:00:22;;;;;;;;;;;;;;;6.52;100.00;-18203.69;5030465;28;19932;-80
2023/05/18 03:02:49;;;;;;;;;;;;;;;6.57;100.00;-18204.78;5030400;28;19939;-79
2023/05/18 03:05:15;;;;;;;;;;;;;;;6.61;100.00;-18205.88;5030352;28;20011;-79
2023/05/18 03:07:41;;;;;;;;;;;;;;;6.48;100.00;-18202.59;5033638;28;19948;-79
2023/05/18 03:10:06;;;;;;;;;;;;;;;6.51;100.00;-18203.28;5013057;28;19982;-80
2023/05/18 03:12:31;;;;;;;;;;;;;;;6.61;100.00;-18206.03;5033283;28;19921;-80
2023/05/18 03:14:57;;;;;;;;;;;;;;;6.64;100.00;-18206.72;5033659;28;19923;-79
2023/05/18 03:17:22;;;;;;;;;;;;;;;6.61;100.00;-18205.88;5033893;28;19917;-80
2023/05/18 03:19:47;;;;;;;;;;;;;;;6.61;100.00;-18206.03;5032759;28;20035;-79
2023/05/18 03:22:13;;;;;;;;;;;;;;;6.34;100.00;-18198.72;5018966;28;19945;-79
2023/05/18 03:24:39;;;;;;;;;;;;;;;6.40;100.00;-18200.38;5030496;28;19924;-79
2023/05/18 03:27:04;;;;;;;;;;;;;;;6.43;100.00;-18201.06;5036941;28;19932;-80
2023/05/18 03:29:30;;;;;;;;;;;;;;;6.32;100.00;-18198.16;5030823;28;19921;-79
2023/05/18 03:31:55;;;;;;;;;;;;;;;6.33;100.00;-18198.59;5030248;28;19936;-80
2023/05/18 03:34:20;;;;;;;;;;;;;;;6.36;100.00;-18199.28;5018879;28;19984;-80
2023/05/18 03:36:46;;;;;;;;;;;;;;;6.43;100.00;-18201.06;5032362;28;19994;-80
2023/05/18 03:39:11;;;;;;;;;;;;;;;6.48;100.00;-18202.59;5032927;28;19939;-80
2023/05/18 03:41:37;;;;;;;;;;;;;;;6.50;100.00;-18203.13;5031089;28;19917;-80
2023/05/18 03:44:02;;;;;;;;;;;;;;;6.52;100.00;-18203.69;5024587;28;19917;-79
2023/05/18 03:46:27;;;;;;;;;;;;;;;6.37;100.00;-18199.53;5023533;28;19922;-79
2023/05/18 03:48:53;;;;;;;;;;;;;;;6.35;100.00;-18198.84;5032647;28;19921;-79
2023/05/18 03:51:18;;;;;;;;;;;;;;;6.45;100.00;-18201.75;5027025;28;19918;-79
2023/05/18 03:53:43;;;;;;;;;;;;;;;6.41;100.00;-18200.50;5026082;28;21156;-80
2023/05/18 03:56:09;;;;;;;;;;;;;;;6.42;100.00;-18200.94;5027125;28;19917;-79
2023/05/18 03:58:34;;;;;;;;;;;;;;;6.43;100.00;-18201.06;5015510;28;20478;-78
2023/05/18 04:00:59;;;;;;;;;;;;;;;6.43;100.00;-18201.06;5027697;28;20420;-79
2023/05/18 04:03:25;;;;;;;;;;;;;;;6.51;100.00;-18203.28;5027401;28;20166;-79
2023/05/18 04:05:52;;;;;;;;;;;;;;;6.52;100.00;-18203.69;5023505;28;19924;-79
2023/05/18 04:08:17;;;;;;;;;;;;;;;6.59;100.00;-18205.34;5031367;28;20390;-78
2023/05/18 04:10:43;;;;;;;;;;;;;;;6.69;100.00;-18208.22;5013915;28;20033;-79
2023/05/18 04:13:08;;;;;;;;;;;;;;;6.56;100.00;-18204.66;5028582;28;20004;-80
2023/05/18 04:15:33;;;;;;;;;;;;;;;6.45;100.00;-18201.75;5026394;28;19977;-79
2023/05/18 04:18:00;;;;;;;;;;;;;;;6.36;100.00;-18199.28;5037944;28;19990;-79
2023/05/18 04:20:27;;;;;;;;;;;;;;;6.58;100.00;-18205.06;5028887;28;19921;-79
2023/05/18 04:22:52;;;;;;;;;;;;;;;6.61;100.00;-18205.88;5028102;28;19928;-79
2023/05/18 04:25:17;;;;;;;;;;;;;;;6.66;100.00;-18207.41;5031528;28;19921;-79
2023/05/18 04:27:46;;;;;;;;;;;;;;;6.62;100.00;-18206.16;5032354;28;19952;-79
2023/05/18 04:30:11;;;;;;;;;;;;;;;6.53;100.00;-18203.97;5029550;28;19921;-79
2023/05/18 04:32:37;;;;;;;;;;;;;;;6.53;100.00;-18203.97;5033149;28;19917;-79
2023/05/18 04:35:04;;;;;;;;;;;;;;;6.55;100.00;-18204.50;5028279;28;19922;-80
2023/05/18 04:37:29;;;;;;;;;;;;;;;6.73;100.00;-18209.34;5029673;28;19925;-79
2023/05/18 04:39:54;;;;;;;;;;;;;;;6.58;100.00;-18205.19;5028263;28;19924;-79
2023/05/18 04:42:19;;;;;;;;;;;;;;;6.69;100.00;-18208.09;5034297;28;19917;-79
2023/05/18 04:44:45;;;;;;;;;;;;;;;6.84;100.00;-18212.22;5028869;28;19925;-79
2023/05/18 04:47:10;;;;;;;;;;;;;;;7.06;100.00;-18218.03;5027527;28;19929;-79
2023/05/18 04:49:36;;;;;;;;;;;;;;;7.01;100.00;-18216.91;5029507;28;19921;-80
2023/05/18 04:52:01;;;;;;;;;;;;;;;7.01;100.00;-18216.91;5034098;28;19925;-79
2023/05/18 04:54:30;;;;;;;;;;;;;;;7.21;100.00;-18222.16;5014442;28;19932;-79
2023/05/18 04:56:56;;;;;;;;;;;;;;;7.26;100.00;-18223.53;5032888;28;20419;-79
2023/05/18 04:59:25;;;;;;;;;;;;;;;7.43;100.00;-18228.06;5015489;28;19936;-79
2023/05/18 05:01:50;;;;;;;;;;;;;;;7.41;100.00;-18227.66;5030593;28;20004;-79
2023/05/18 05:04:15;;;;;;;;;;;;;;;7.54;100.00;-18230.97;5033175;28;19964;-78
2023/05/18 05:06:40;;;;;;;;;;;;;;;7.63;100.00;-18233.44;5028185;22;20324;-85
2023/05/18 05:09:06;;;;;;;;;;;;;;;7.82;100.00;-18238.69;4987707;28;20426;-85
2023/05/18 05:11:31;;;;;;;;;;;;;;;7.59;100.00;-18232.47;5004864;28;20020;-85
2023/05/18 05:13:56;;;;;;;;;;;;;;;7.63;100.00;-18233.44;5001096;28;19925;-85
2023/05/18 05:16:21;;;;;;;;;;;;;;;7.58;100.00;-18232.22;5000164;28;19923;-85
2023/05/18 05:18:47;;;;;;;;;;;;;;;7.86;100.00;-18239.66;4984952;28;20452;-85
2023/05/18 05:21:12;;;;;;;;;;;;;;;7.83;100.00;-18238.81;4983549;28;19925;-86
2023/05/18 05:23:37;;;;;;;;;;;;;;;8.04;100.00;-18244.47;5000533;28;20300;-86
2023/05/18 05:26:03;;;;;;;;;;;;;;;8.15;100.00;-18247.50;5001843;28;20012;-86
2023/05/18 05:28:28;;;;;;;;;;;;;;;8.28;100.00;-18251.06;5000673;28;19917;-85
2023/05/18 05:30:53;;;;;;;;;;;;;;;8.50;100.00;-18256.88;4983813;28;19930;-85
2023/05/18 05:33:18;;;;;;;;;;;;;;;8.65;100.00;-18261.00;5000749;28;19925;-85
2023/05/18 05:35:44;;;;;;;;;;;;;;;8.74;100.00;-18263.31;4983280;28;19959;-85
2023/05/18 05:38:09;;;;;;;;;;;;;;;8.56;100.00;-18258.50;5003353;28;19932;-85
2023/05/18 05:40:34;;;;;;;;;;;;;;;8.72;100.00;-18262.91;5000389;28;19940;-86
2023/05/18 05:43:00;;;;;;;;;;;;;;;8.80;100.00;-18264.97;4984169;28;20363;-85
2023/05/18 05:45:27;;;;;;;;;;;;;;;8.85;100.00;-18266.22;5004440;28;19926;-86
2023/05/18 05:47:52;;;;;;;;;;;;;;;9.08;100.00;-18272.41;4986728;28;19940;-87
2023/05/18 05:50:17;;;;;;;;;;;;;;;9.22;100.00;-18276.41;5006306;28;19917;-85
2023/05/18 05:52:43;;;;;;;;;;;;;;;9.31;100.00;-18278.59;5004314;28;19917;-85
2023/05/18 05:55:08;;;;;;;;;;;;;;;9.41;100.00;-18281.34;5004744;28;19933;-85
2023/05/18 05:57:33;;;;;;;;;;;;;;;9.47;100.00;-18283.00;5005775;28;20004;-86
2023/05/18 05:59:58;;;;;;;;;;;;;;;9.51;100.00;-18284.09;5007855;28;19940;-85
2023/05/18 06:02:24;;;;;;;;;;;;;;;9.55;100.00;-18285.19;5002748;28;20016;-87
2023/05/18 06:04:49;;;;;;;;;;;;;;;9.81;100.00;-18292.06;5002608;28;20404;-86
2023/05/18 06:07:14;;;;;;;;;;;;;;;9.90;100.00;-18294.56;5000357;28;19921;-86
2023/05/18 06:09:39;;;;;;;;;;;;;;;10.22;100.00;-18303.06;4999336;28;20304;-85
2023/05/18 06:12:06;;;;;;;;;;;;;;;10.38;100.00;-18307.47;5003691;28;20004;-85
2023/05/18 06:14:31;;;;;;;;;;;;;;;10.36;100.00;-18306.94;4984481;28;19921;-85
2023/05/18 06:16:56;;;;;;;;;;;;;;;10.29;100.00;-18305.13;5001154;28;20071;-86
2023/05/18 06:19:21;;;;;;;;;;;;;;;10.50;100.00;-18310.78;5000945;28;19929;-85
2023/05/18 06:21:47;;;;;;;;;;;;;;;10.52;100.00;-18311.31;5002800;28;20055;-86
2023/05/18 06:24:12;;;;;;;;;;;;;;;10.68;100.00;-18315.59;5003953;28;19926;-85
2023/05/18 06:26:37;;;;;;;;;;;;;;;10.80;100.00;-18318.88;5001406;28;19922;-85
2023/05/18 06:29:02;;;;;;;;;;;;;;;10.94;100.00;-18322.59;4987361;28;19917;-86
2023/05/18 06:31:28;;;;;;;;;;;;;;;11.06;100.00;-18325.75;4985594;28;20406;-86
2023/05/18 06:33:53;;;;;;;;;;;;;;;10.91;100.00;-18321.75;5002398;28;19917;-85
2023/05/18 06:36:19;;;;;;;;;;;;;;;10.85;100.00;-18320.13;4987152;28;20116;-86
2023/05/18 06:38:44;;;;;;;;;;;;;;;10.88;100.00;-18320.81;5002251;28;20174;-85
2023/05/18 06:41:10;;;;;;;;;;;;;;;10.78;100.00;-18318.19;5001919;28;19932;-84
2023/05/18 06:43:35;;;;;;;;;;;;;;;10.81;100.00;-18319.00;5003068;28;19965;-85
2023/05/18 06:46:00;;;;;;;;;;;;;;;10.81;100.00;-18319.16;5004155;28;19929;-85
2023/05/18 06:48:26;;;;;;;;;;;;;;;11.31;100.00;-18332.47;5005566;28;19952;-86
2023/05/18 06:50:52;;;;;;;;;;;;;;;11.47;100.00;-18336.88;5003533;28;20418;-86
2023/05/18 06:53:17;;;;;;;;;;;;;;;11.70;100.00;-18343.03;5007356;28;19928;-86
2023/05/18 06:55:45;;;;;;;;;;;;;;;11.71;100.00;-18343.31;5010942;28;20005;-89
2023/05/18 06:58:10;;;;;;;;;;;;;;;11.83;100.00;-18346.34;5005535;28;20919;-88
2023/05/18 07:00:36;;;;;;;;;;;;;;;11.81;100.00;-18345.94;5005976;28;20416;-89
2023/05/18 07:03:02;;;;;;;;;;;;;;;11.87;98.73;-18347.56;5006023;28;19967;-85
2023/05/18 07:05:27;;;;;;;;;;;;;;;11.91;100.00;-18348.69;5010548;28;20305;-84
2023/05/18 07:07:52;;;;;;;;;;;;;;;11.96;99.96;-18350.03;5007958;28;19936;-85
2023/05/18 07:10:18;;;;;;;;;;;;;;;12.01;98.33;-18351.16;4993311;28;19980;-85
2023/05/18 07:12:43;;;;;;;;;;;;;;;12.07;96.25;-18352.78;5008961;28;19926;-85
2023/05/18 07:15:10;;;;;;;;;;;;;;;11.95;98.35;-18349.78;5007499;28;20290;-85
2023/05/18 07:17:36;;;;;;;;;;;;;;;11.88;98.09;-18347.84;4989738;28;19917;-85
2023/05/18 07:20:01;;;;;;;;;;;;;;;12.09;95.06;-18353.34;4992381;28;19940;-86
2023/05/18 07:22:26;;;;;;;;;;;;;;;12.25;96.50;-18357.72;5008942;28;19914;-86
2023/05/18 07:24:51;;;;;;;;;;;;;;;12.40;93.31;-18361.84;5002948;28;19964;-85
2023/05/18 07:27:17;;;;;;;;;;;;;;;12.35;97.02;-18360.47;4988650;28;20372;-86
2023/05/18 07:29:42;;;;;;;;;;;;;;;12.39;91.87;-18361.56;5010028;28;20008;-86
2023/05/18 07:32:07;;;;;;;;;;;;;;;12.30;92.58;-18358.97;5006802;28;20384;-85
2023/05/18 07:34:33;;;;;;;;;;;;;;;12.36;91.24;-18360.75;5011297;28;19975;-85
2023/05/18 07:36:58;;;;;;;;;;;;;;;12.40;93.06;-18361.84;5010244;28;20319;-85
2023/05/18 07:39:27;;;;;;;;;;;;;;;12.44;92.91;-18362.66;4996878;28;20320;-84
2023/05/18 07:41:53;;;;;;;;;;;;;;;12.52;93.19;-18365.00;4997401;28;20146;-85
2023/05/18 07:44:18;;;;;;;;;;;;;;;12.48;94.85;-18363.91;5000582;28;20307;-86
2023/05/18 07:46:43;;;;;;;;;;;;;;;12.76;90.03;-18371.44;4999198;28;19925;-86
2023/05/18 07:49:09;;;;;;;;;;;;;;;12.91;88.22;-18375.41;5019374;28;19918;-83
2023/05/18 07:51:34;;;;;;;;;;;;;;;12.93;93.41;-18375.84;4993929;28;20402;-87
2023/05/18 07:53:59;;;;;;;;;;;;;;;13.10;86.20;-18380.63;5021849;28;19917;-85
2023/05/18 07:56:25;;;;;;;;;;;;;;;13.31;89.63;-18386.13;4995198;28;19914;-86
2023/05/18 07:58:50;;;;;;;;;;;;;;;13.50;86.23;-18391.19;5006133;28;19918;-85
2023/05/18 08:01:16;;;;;;;;;;;;;;;13.30;81.15;-18385.84;5008286;28;19917;-85
2023/05/18 08:03:41;;;;;;;;;;;;;;;13.42;85.47;-18389.13;5008407;28;19917;-85
2023/05/18 08:06:06;;;;;;;;;;;;;;;13.46;82.69;-18390.09;5009198;28;19922;-85
2023/05/18 08:08:32;;;;;;;;;;;;;;;13.49;81.74;-18390.91;5004405;28;19913;-86
2023/05/18 08:10:57;;;;;;;;;;;;;;;13.41;80.28;-18388.88;4992006;28;19943;-86
2023/05/18 08:13:23;;;;;;;;;;;;;;;13.16;79.25;-18382.13;4997740;28;19917;-85
2023/05/18 08:15:48;;;;;;;;;;;;;;;13.57;87.06;-18392.97;5009037;28;19914;-85
2023/05/18 08:18:13;;;;;;;;;;;;;;;13.68;80.97;-18396.13;4988840;28;20377;-85
2023/05/18 08:20:39;;;;;;;;;;;;;;;13.59;80.17;-18393.66;4997700;28;19921;-84
2023/05/18 08:23:04;;;;;;;;;;;;;;;13.56;79.79;-18392.69;4966099;28;19928;-85
2023/05/18 08:25:29;;;;;;;;;;;;;;;13.56;85.34;-18392.84;5011888;28;20610;-88
2023/05/18 08:27:54;;;;;;;;;;;;;;;13.43;80.54;-18389.41;5014667;28;19921;-85
2023/05/18 08:30:20;;;;;;;;;;;;;;;13.52;75.05;-18391.75;5008452;28;19917;-85
2023/05/18 08:32:48;;;;;;;;;;;;;;;13.72;77.94;-18397.22;5011680;28;20423;-85
2023/05/18 08:35:14;;;;;;;;;;;;;;;13.49;73.48;-18391.06;5017445;28;20028;-84
2023/05/18 08:37:39;;;;;;;;;;;;;;;13.65;78.14;-18395.31;5011320;28;20320;-84
2023/05/18 08:40:06;;;;;;;;;;;;;;;13.68;74.01;-18396.13;4994317;28;19921;-83
2023/05/18 08:42:32;;;;;;;;;;;;;;;13.46;71.61;-18390.09;4996419;28;19917;-83
2023/05/18 08:45:15;;;;;;;;;;;;;;;13.60;77.91;-18393.94;5002108;28;19918;-85
2023/05/18 08:47:41;;;;;;;;;;;;;;;13.86;75.37;-18400.78;5001647;28;19984;-85
2023/05/18 08:50:06;;;;;;;;;;;;;;;14.01;71.93;-18404.88;4986139;28;19964;-86
2023/05/18 08:52:36;;;;;;;;;;;;;;;13.81;74.19;-18399.41;4985747;28;19925;-85
2023/05/18 08:55:06;;;;;;;;;;;;;;;13.97;76.69;-18403.78;5001130;28;19953;-85
2023/05/18 08:57:33;;;;;;;;;;;;;;;14.13;74.17;-18408.19;5002445;28;19972;-86
2023/05/18 08:59:59;;;;;;;;;;;;;;;14.21;74.84;-18410.38;4999652;28;19921;-85
2023/05/18 09:02:25;;;;;;;;;;;;;;;14.49;65.88;-18417.75;5000829;28;19980;-86
2023/05/18 09:04:51;;;;;;;;;;;;;;;14.64;72.23;-18421.72;4998464;28;19925;-85
2023/05/18 09:07:17;;;;;;;;;;;;;;;14.51;68.01;-18418.31;5000658;28;20673;-85
2023/05/18 09:09:43;;;;;;;;;;;;;;;14.60;69.73;-18420.63;4984030;28;19945;-86
2023/05/18 09:12:08;;;;;;;;;;;;;;;14.86;70.88;-18427.63;5001681;28;21587;-85
2023/05/18 09:14:33;;;;;;;;;;;;;;;14.96;66.60;-18430.34;5000456;28;20581;-85
2023/05/18 09:16:59;;;;;;;;;;;;;;;15.05;66.52;-18432.81;4984367;28;20820;-85
2023/05/18 09:19:25;;;;;;;;;;;;;;;14.87;62.37;-18427.91;5004957;28;19979;-86
2023/05/18 09:25:01;;;;;;;;;;;;;;;14.66;66.90;-18422.41;4968082;28;19999;-87
2023/05/18 09:27:26;;;;;;;;;;;;;;;14.33;64.79;-18413.53;4989847;28;19917;-87
2023/05/18 09:29:55;;;;;;;;;;;;;;;14.52;66.53;-18418.59;4972908;28;19928;-86
2023/05/18 09:32:21;;;;;;;;;;;;;;;14.66;69.90;-18422.41;4979952;28;19921;-84
2023/05/18 09:34:47;;;;;;;;;;;;;;;14.50;64.86;-18418.03;4979663;28;19949;-83
2023/05/18 09:37:16;;;;;;;;;;;;;;;14.47;67.04;-18417.22;4977778;28;19918;-85
2023/05/18 09:39:42;;;;;;;;;;;;;;;14.27;62.19;-18411.72;4971257;28;19925;-85
2023/05/18 09:42:07;;;;;;;;;;;;;;;14.25;67.06;-18411.19;4977536;28;19981;-84
2023/05/18 09:44:33;;;;;;;;;;;;;;;14.79;75.07;-18425.72;4992555;28;20300;-90
2023/05/18 09:46:58;;;;;;;;;;;;;;;15.04;63.16;-18432.53;4967458;28;20230;-88
2023/05/18 09:49:23;;;;;;;;;;;;;;;15.16;62.57;-18435.56;4960492;28;19922;-82
2023/05/18 09:52:07;;;;;;;;;;;;;;;14.86;59.28;-18427.75;4954896;28;19980;-86
2023/05/18 09:54:38;;;;;;;;;;;;;;;14.83;65.42;-18426.81;4898207;29;19927;-84
2023/05/18 09:57:04;;;;;;;;;;;;;;;15.04;62.99;-18432.53;4894075;29;19974;-88
2023/05/18 09:59:30;;;;;;;;;;;;;;;15.07;64.58;-18433.38;4896508;29;19919;-90
2023/05/18 10:01:59;;;;;;;;;;;;;;;15.07;58.89;-18433.38;4894675;29;19954;-91
2023/05/18 10:04:34;;;;;;;;;;;;;;;15.15;62.42;-18435.28;4897031;29;20374;-89
2023/05/18 10:07:00;;;;;;;;;;;;;;;15.15;60.36;-18435.41;4909666;29;20420;-90
2023/05/18 10:09:34;;;;;;;;;;;;;;;15.45;58.30;-18443.50;4908139;29;19915;-83
2023/05/18 10:12:00;;;;;;;;;;;;;;;15.69;54.54;-18449.78;4864980;29;20104;-92
2023/05/18 10:14:29;;;;;;;;;;;;;;;15.77;60.20;-18452.13;4891151;29;19922;-88
2023/05/18 10:16:54;;;;;;;;;;;;;;;15.93;57.60;-18456.22;4861404;29;19923;-89
2023/05/18 10:19:20;;;;;;;;;;;;;;;16.07;56.86;-18459.91;4867612;29;19951;-87
2023/05/18 10:21:45;;;;;;;;;;;;;;;16.21;57.06;-18463.72;4851415;29;20410;-88
2023/05/18 10:24:13;;;;;;;;;;;;;;;16.07;54.73;-18459.91;4865236;29;19916;-91
2023/05/18 10:26:40;;;;;;;;;;;;;;;16.33;56.80;-18467.00;4872863;29;19991;-83
2023/05/18 10:29:06;;;;;;;;;;;;;;;16.38;56.25;-18468.38;4885178;29;20014;-84
2023/05/18 10:31:34;;;;;;;;;;;;;;;16.43;56.40;-18469.59;4888331;29;19923;-84
2023/05/18 10:33:59;;;;;;;;;;;;;;;16.10;53.21;-18460.84;4871321;29;19967;-83
2023/05/18 10:36:28;;;;;;;;;;;;;;;16.38;56.14;-18468.38;4889531;29;19919;-85
2023/05/18 10:38:55;;;;;;;;;;;;;;;16.24;54.52;-18464.69;4872332;29;19963;-84
2023/05/18 10:41:21;;;;;;;;;;;;;;;16.38;52.70;-18468.38;4881044;29;19923;-85
2023/05/18 10:43:47;;;;;;;;;;;;;;;16.18;54.73;-18463.03;4916066;28;19918;-86
2023/05/18 10:46:14;;;;;;;;;;;;;;;16.11;51.64;-18461.00;4953580;28;20006;-85
2023/05/18 10:48:41;;;;;;;;;;;;;;;16.08;52.30;-18460.19;4969468;28;19918;-85
2023/05/18 10:51:07;;;;;;;;;;;;;;;16.22;52.47;-18464.00;4992457;28;20048;-85
2023/05/18 10:53:32;;;;;;;;;;;;;;;16.55;58.23;-18472.88;4993920;28;19964;-84
2023/05/18 10:55:58;;;;;;;;;;;;;;;16.64;52.67;-18475.34;5010862;28;19924;-84
2023/05/18 10:58:27;;;;;;;;;;;;;;;16.17;51.33;-18462.78;5011875;28;19943;-85
2023/05/18 11:01:00;;;;;;;;;;;;;;;16.42;59.34;-18469.47;5011310;28;20396;-88
2023/05/18 11:03:25;;;;;;;;;;;;;;;16.60;52.81;-18474.13;5011078;28;20396;-85
2023/05/18 11:06:11;;;;;;;;;;;;;;;16.52;55.02;-18471.94;5011507;28;19928;-85
2023/05/18 11:08:43;;;;;;;;;;;;;;;16.76;52.95;-18478.34;5012094;28;19926;-86
2023/05/18 11:11:08;;;;;;;;;;;;;;;16.95;52.81;-18483.53;5006487;28;19926;-85
2023/05/18 11:13:34;;;;;;;;;;;;;;;16.90;50.18;-18482.31;5010264;28;19940;-87
2023/05/18 11:16:06;;;;;;;;;;;;;;;17.01;49.91;-18485.19;5010379;28;20137;-87
2023/05/18 11:18:35;;;;;;;;;;;;;;;16.91;52.63;-18482.59;5008823;28;19926;-85
2023/05/18 11:21:00;;;;;;;;;;;;;;;17.16;52.08;-18489.13;5007888;28;19913;-87
2023/05/18 11:23:29;;;;;;;;;;;;;;;17.07;51.25;-18486.69;4999542;28;20410;-85
2023/05/18 11:26:01;;;;;;;;;;;;;;;16.84;49.86;-18480.69;5009305;28;19918;-85
2023/05/18 11:28:27;;;;;;;;;;;;;;;17.22;52.22;-18490.66;5009348;28;19928;-85
2023/05/18 11:30:52;;;;;;;;;;;;;;;17.18;48.92;-18489.69;5007434;28;19917;-85
2023/05/18 11:33:21;;;;;;;;;;;;;;;17.28;51.02;-18492.28;5007424;28;19920;-85
2023/05/18 11:36:02;;;;;;;;;;;;;;;17.22;48.75;-18490.78;5006074;28;19914;-86
2023/05/18 11:38:46;;;;;;;;;;;;;;;17.40;50.19;-18495.56;5010611;28;19925;-85
2023/05/18 11:41:30;;;;;;;;;;;;;;;17.63;48.20;-18501.69;5008873;28;19913;-85
2023/05/18 11:44:08;;;;;;;;;;;;;;;17.31;48.53;-18493.09;5007170;28;19944;-85
2023/05/18 11:46:34;;;;;;;;;;;;;;;17.15;47.04;-18488.88;5003707;28;20015;-86
2023/05/18 11:49:05;;;;;;;;;;;;;;;17.45;48.80;-18496.78;5002019;28;20537;-85
2023/05/18 11:51:31;;;;;;;;;;;;;;;17.41;49.00;-18495.84;4993768;28;19924;-89
2023/05/18 11:53:57;;;;;;;;;;;;;;;17.61;46.98;-18501.16;5002973;28;20359;-88
2023/05/18 11:56:25;;;;;;;;;;;;;;;17.58;46.43;-18500.34;5002494;28;20304;-88
2023/05/18 11:59:08;;;;;;;;;;;;;;;17.96;48.04;-18510.44;5000752;28;20359;-89
2023/05/18 12:01:34;;;;;;;;;;;;;;;17.54;46.14;-18499.25;5004848;28;19961;-89
2023/05/18 12:04:07;;;;;;;;;;;;;;;18.11;45.99;-18514.53;5020369;27;19983;-78
2023/05/18 12:06:33;;;;;;;;;;;;;;;18.02;43.45;-18512.22;5019035;28;19925;-78
2023/05/18 12:08:58;;;;;;;;;;;;;;;18.01;45.03;-18511.81;5020444;28;19933;-78
2023/05/18 12:11:24;;;;;;;;;;;;;;;18.31;45.52;-18519.72;5024594;28;19935;-78
2023/05/18 12:13:51;;;;;;;;;;;;;;;18.26;46.51;-18518.63;5039660;28;20470;-79
2023/05/18 12:16:16;;;;;;;;;;;;;;;18.41;44.26;-18522.44;5041057;28;20159;-78
2023/05/18 12:18:47;;;;;;;;;;;;;;;18.30;47.11;-18519.56;5040512;28;19992;-78
2023/05/18 12:21:12;;;;;;;;;;;;;;;18.54;45.93;-18525.97;5040925;28;20399;-79
2023/05/18 12:23:38;;;;;;;;;;;;;;;18.36;43.63;-18521.06;5038396;28;19929;-78
2023/05/18 12:26:03;;;;;;;;;;;;;;;18.26;46.37;-18518.63;5039227;28;20331;-78
2023/05/18 12:28:29;;;;;;;;;;;;;;;18.38;44.63;-18521.63;5041227;28;19917;-78
2023/05/18 12:30:55;;;;;;;;;;;;;;;18.40;44.11;-18522.31;5041246;28;20698;-78
2023/05/18 12:33:20;;;;;;;;;;;;;;;17.92;43.81;-18509.47;5040301;28;19924;-79
2023/05/18 12:35:45;;;;;;;;;;;;;;;18.43;44.73;-18523.13;5041521;28;20016;-78